Time;durP1;ratioP1;P1;durP2;ratioP2;P2;SDS_P1;SDS_P2;PMS_P1;PMS_P2;Temp;Humidity;BMP_temperature;BMP_pressure;BME280_temperature;BME280_humidity;BME280_pressure;Samples;Min_cycle;Max_cycle;Signal;HPM_P1;HPM_P2
2023/03/08 00:00:59;;;;;;;9.10;5.77;;;;;;;;;;5001665;28;20247;-78
2023/03/08 00:03:24;;;;;;;8.10;5.93;;;;;;;;;;5006072;28;20257;-78
2023/03/08 00:05:50;;;;;;;8.30;6.17;;;;;;;;;;5000724;28;20174;-78
2023/03/08 00:08:16;;;;;;;7.90;6.40;;;;;;;;;;5021951;28;20274;-78
2023/03/08 00:10:41;;;;;;;8.30;6.07;;;;;;;;;;5016704;28;20178;-78
2023/03/08 00:13:06;;;;;;;7.90;5.77;;;;;;;;;;5004495;28;20202;-78
2023/03/08 00:15:32;;;;;;;7.53;5.60;;;;;;;;;;5006125;28;20240;-78
2023/03/08 00:17:57;;;;;;;8.63;5.87;;;;;;;;;;5010374;28;20230;-78
2023/03/08 00:20:22;;;;;;;7.50;6.03;;;;;;;;;;5002114;28;20262;-77
2023/03/08 00:22:47;;;;;;;7.90;6.13;;;;;;;;;;5008362;28;20234;-77
2023/03/08 00:25:15;;;;;;;7.17;5.70;;;;;;;;;;5003327;28;20244;-77
2023/03/08 00:27:40;;;;;;;10.47;6.53;;;;;;;;;;5002227;28;20232;-77
2023/03/08 00:30:06;;;;;;;7.93;5.90;;;;;;;;;;5004153;28;20246;-77
2023/03/08 00:32:31;;;;;;;8.67;6.17;;;;;;;;;;5008877;28;20175;-77
2023/03/08 00:34:56;;;;;;;7.73;5.80;;;;;;;;;;4999016;28;20187;-78
2023/03/08 00:37:22;;;;;;;8.60;6.00;;;;;;;;;;4997793;28;20207;-78
2023/03/08 00:39:53;;;;;;;8.40;6.40;;;;;;;;;;5006850;28;20208;-78
2023/03/08 00:42:19;;;;;;;5.73;5.03;;;;;;;;;;5000775;28;20179;-78
2023/03/08 00:44:45;;;;;;;6.07;5.13;;;;;;;;;;5006435;28;20187;-77
2023/03/08 00:47:10;;;;;;;7.20;5.80;;;;;;;;;;5005440;28;20193;-78
2023/03/08 00:49:35;;;;;;;8.03;6.40;;;;;;;;;;5002429;28;20202;-78
2023/03/08 00:52:00;;;;;;;8.10;5.67;;;;;;;;;;5026693;28;20182;-77
2023/03/08 00:54:26;;;;;;;8.70;6.10;;;;;;;;;;5005459;28;20191;-77
2023/03/08 00:56:51;;;;;;;7.30;6.33;;;;;;;;;;4998368;28;20186;-77
2023/03/08 00:59:16;;;;;;;8.17;5.83;;;;;;;;;;5004512;28;20201;-77
2023/03/08 01:01:42;;;;;;;10.47;5.60;;;;;;;;;;4997368;28;20202;-77
2023/03/08 01:04:07;;;;;;;6.10;5.27;;;;;;;;;;5005943;28;20183;-77
2023/03/08 01:06:32;;;;;;;8.33;6.03;;;;;;;;;;5007615;28;20177;-77
2023/03/08 01:08:58;;;;;;;7.07;5.27;;;;;;;;;;5020258;28;20217;-77
2023/03/08 01:11:24;;;;;;;9.67;5.40;;;;;;;;;;5002202;28;20265;-77
2023/03/08 01:13:50;;;;;;;7.10;5.67;;;;;;;;;;5016017;28;20284;-77
2023/03/08 01:16:16;;;;;;;7.33;5.60;;;;;;;;;;5004123;28;20202;-77
2023/03/08 01:18:42;;;;;;;8.13;5.60;;;;;;;;;;5000394;28;20229;-77
2023/03/08 01:21:07;;;;;;;7.60;5.47;;;;;;;;;;5021410;28;20265;-77
2023/03/08 01:23:32;;;;;;;6.93;5.37;;;;;;;;;;5007138;28;20170;-77
2023/03/08 01:26:05;;;;;;;7.17;5.03;;;;;;;;;;5003195;28;20191;-77
2023/03/08 01:28:31;;;;;;;6.63;4.77;;;;;;;;;;5004875;28;20179;-77
2023/03/08 01:31:03;;;;;;;7.07;5.40;;;;;;;;;;5001641;28;20197;-77
2023/03/08 01:33:29;;;;;;;7.77;5.67;;;;;;;;;;5001538;28;20257;-77
2023/03/08 01:35:54;;;;;;;7.77;5.70;;;;;;;;;;5026457;28;20182;-77
2023/03/08 01:38:22;;;;;;;8.20;5.30;;;;;;;;;;5005888;28;20209;-76
2023/03/08 01:40:47;;;;;;;8.93;4.87;;;;;;;;;;5007480;28;20175;-77
2023/03/08 01:43:26;;;;;;;7.70;5.50;;;;;;;;;;5021486;28;20175;-76
2023/03/08 01:46:01;;;;;;;6.83;4.83;;;;;;;;;;5025650;28;20183;-76
2023/03/08 01:48:30;;;;;;;8.83;5.33;;;;;;;;;;5000184;28;20195;-76
2023/03/08 01:50:55;;;;;;;8.27;5.00;;;;;;;;;;5003121;28;20179;-77
2023/03/08 01:53:20;;;;;;;7.23;4.93;;;;;;;;;;5004771;28;20241;-76
2023/03/08 01:55:46;;;;;;;6.67;5.10;;;;;;;;;;5018611;28;20183;-76
2023/03/08 01:58:12;;;;;;;6.63;4.83;;;;;;;;;;5018862;28;20207;-76
2023/03/08 02:00:37;;;;;;;6.33;4.37;;;;;;;;;;5004019;28;20166;-76
2023/03/08 02:03:04;;;;;;;10.90;5.97;;;;;;;;;;5008799;28;20269;-76
2023/03/08 02:05:30;;;;;;;11.23;6.97;;;;;;;;;;5000399;28;20241;-76
2023/03/08 02:07:55;;;;;;;11.27;6.70;;;;;;;;;;5003925;28;20179;-76
2023/03/08 02:10:20;;;;;;;9.47;7.13;;;;;;;;;;5005421;28;20190;-76
2023/03/08 02:12:46;;;;;;;10.57;6.93;;;;;;;;;;5012801;28;20202;-76
2023/03/08 02:15:13;;;;;;;10.43;7.03;;;;;;;;;;5026021;28;20266;-76
2023/03/08 02:17:39;;;;;;;10.47;7.37;;;;;;;;;;5015060;28;20293;-76
2023/03/08 02:20:09;;;;;;;10.53;6.97;;;;;;;;;;5028934;28;20182;-75
2023/03/08 02:22:38;;;;;;;9.47;6.53;;;;;;;;;;5030198;28;20245;-76
2023/03/08 02:25:12;;;;;;;9.83;6.53;;;;;;;;;;5020864;28;20250;-76
2023/03/08 02:27:37;;;;;;;10.17;7.53;;;;;;;;;;5024005;28;20182;-76
2023/03/08 02:30:02;;;;;;;9.37;6.60;;;;;;;;;;5028781;28;20177;-76
2023/03/08 02:32:28;;;;;;;8.63;6.07;;;;;;;;;;5030487;28;20182;-76
2023/03/08 02:34:53;;;;;;;9.83;7.07;;;;;;;;;;5028086;28;20178;-76
2023/03/08 02:37:18;;;;;;;11.80;6.73;;;;;;;;;;5021024;28;20210;-75
2023/03/08 02:39:43;;;;;;;9.20;6.93;;;;;;;;;;5025497;28;20188;-76
2023/03/08 02:42:09;;;;;;;9.67;6.73;;;;;;;;;;5046429;28;20265;-76
2023/03/08 02:44:34;;;;;;;11.77;7.00;;;;;;;;;;5033109;28;20205;-76
2023/03/08 02:46:59;;;;;;;8.90;6.67;;;;;;;;;;5024404;28;20185;-76
2023/03/08 02:49:24;;;;;;;9.70;6.60;;;;;;;;;;5023178;28;20197;-76
2023/03/08 02:51:50;;;;;;;11.83;7.20;;;;;;;;;;5032728;28;20178;-76
2023/03/08 02:54:15;;;;;;;9.60;6.77;;;;;;;;;;5045574;28;20186;-75
2023/03/08 02:56:40;;;;;;;11.27;7.50;;;;;;;;;;5026487;28;20178;-76
2023/03/08 02:59:05;;;;;;;11.13;7.67;;;;;;;;;;5025372;28;20176;-75
2023/03/08 03:01:31;;;;;;;10.20;6.70;;;;;;;;;;5024995;28;20212;-76
2023/03/08 03:03:56;;;;;;;12.30;7.10;;;;;;;;;;5019964;28;20201;-76
2023/03/08 03:06:21;;;;;;;13.13;7.63;;;;;;;;;;5029239;28;20182;-76
2023/03/08 03:08:46;;;;;;;11.63;6.70;;;;;;;;;;5021816;28;20178;-76
2023/03/08 03:11:12;;;;;;;15.33;7.20;;;;;;;;;;5025605;28;20209;-76
2023/03/08 03:13:38;;;;;;;12.37;7.00;;;;;;;;;;5024164;28;20174;-76
2023/03/08 03:16:10;;;;;;;12.93;7.70;;;;;;;;;;5030021;28;20192;-76
2023/03/08 03:18:35;;;;;;;10.60;7.37;;;;;;;;;;5045054;28;20305;-75
2023/03/08 03:21:02;;;;;;;10.57;6.67;;;;;;;;;;5031552;28;20289;-76
2023/03/08 03:23:28;;;;;;;12.17;7.20;;;;;;;;;;5023739;28;20240;-76
2023/03/08 03:25:53;;;;;;;8.73;6.53;;;;;;;;;;5020174;28;20175;-76
2023/03/08 03:28:18;;;;;;;8.00;6.50;;;;;;;;;;5019837;28;20182;-76
2023/03/08 03:30:43;;;;;;;10.77;7.37;;;;;;;;;;5026386;28;20191;-76
2023/03/08 03:33:08;;;;;;;11.33;7.13;;;;;;;;;;5025151;28;20182;-76
2023/03/08 03:35:36;;;;;;;10.83;7.43;;;;;;;;;;5027941;28;20166;-76
2023/03/08 03:38:01;;;;;;;8.27;6.13;;;;;;;;;;5025371;28;20210;-76
2023/03/08 03:40:26;;;;;;;11.13;7.63;;;;;;;;;;5033678;28;20173;-76
2023/03/08 03:42:52;;;;;;;9.10;6.77;;;;;;;;;;5026253;28;20193;-75
2023/03/08 03:45:17;;;;;;;11.13;6.83;;;;;;;;;;5027463;28;20182;-76
2023/03/08 03:47:42;;;;;;;12.97;9.20;;;;;;;;;;5023170;28;20175;-76
2023/03/08 03:50:08;;;;;;;10.50;6.80;;;;;;;;;;5020376;28;20304;-76
2023/03/08 03:52:33;;;;;;;8.57;7.27;;;;;;;;;;5031414;28;20194;-76
2023/03/08 03:54:58;;;;;;;11.13;7.27;;;;;;;;;;5021600;28;20187;-76
2023/03/08 03:57:23;;;;;;;12.33;7.10;;;;;;;;;;5048382;28;20208;-76
2023/03/08 03:59:49;;;;;;;8.97;6.87;;;;;;;;;;5024705;28;20198;-76
2023/03/08 04:02:14;;;;;;;9.10;6.63;;;;;;;;;;5037927;28;20174;-76
2023/03/08 04:04:39;;;;;;;11.83;7.77;;;;;;;;;;5021332;28;20175;-76
2023/03/08 04:07:04;;;;;;;9.20;7.10;;;;;;;;;;5041403;28;20178;-76
2023/03/08 04:09:29;;;;;;;10.77;7.80;;;;;;;;;;5030347;28;20175;-76
2023/03/08 04:11:55;;;;;;;13.53;8.13;;;;;;;;;;5026312;28;20212;-76
2023/03/08 04:14:20;;;;;;;11.10;7.37;;;;;;;;;;5020171;28;20182;-75
2023/03/08 04:16:45;;;;;;;9.97;7.57;;;;;;;;;;5040665;28;20190;-76
2023/03/08 04:19:12;;;;;;;12.13;7.47;;;;;;;;;;5025956;28;20240;-76
2023/03/08 04:21:37;;;;;;;11.07;7.13;;;;;;;;;;5023740;28;20181;-76
2023/03/08 04:24:03;;;;;;;9.17;6.50;;;;;;;;;;5020694;28;20171;-75
2023/03/08 04:26:28;;;;;;;11.00;7.67;;;;;;;;;;5047477;28;20252;-76
2023/03/08 04:28:53;;;;;;;7.83;6.63;;;;;;;;;;5025263;28;20197;-76
2023/03/08 04:31:20;;;;;;;10.47;7.20;;;;;;;;;;5024388;28;20235;-76
2023/03/08 04:33:46;;;;;;;9.93;7.17;;;;;;;;;;5021110;28;20198;-76
2023/03/08 04:36:12;;;;;;;8.57;6.50;;;;;;;;;;5039332;28;20262;-76
2023/03/08 04:38:37;;;;;;;12.37;6.93;;;;;;;;;;5034037;28;20202;-76
2023/03/08 04:41:11;;;;;;;9.37;6.50;;;;;;;;;;5037082;28;20190;-76
2023/03/08 04:43:38;;;;;;;7.47;5.70;;;;;;;;;;5043057;28;20174;-76
2023/03/08 04:46:03;;;;;;;14.70;8.93;;;;;;;;;;5019924;28;20193;-76
2023/03/08 04:48:28;;;;;;;8.90;5.87;;;;;;;;;;5044841;28;20179;-76
2023/03/08 04:50:55;;;;;;;9.03;5.80;;;;;;;;;;5019470;28;20182;-76
2023/03/08 04:53:21;;;;;;;7.73;4.87;;;;;;;;;;5023805;28;20269;-76
2023/03/08 04:55:46;;;;;;;8.30;5.27;;;;;;;;;;5040464;28;20182;-76
2023/03/08 04:58:11;;;;;;;6.97;5.63;;;;;;;;;;5022242;28;20198;-76
2023/03/08 05:00:37;;;;;;;8.60;5.77;;;;;;;;;;5031074;28;20185;-76
2023/03/08 05:03:02;;;;;;;9.90;6.17;;;;;;;;;;5046209;28;20174;-76
2023/03/08 05:05:27;;;;;;;13.63;6.40;;;;;;;;;;5029453;28;20174;-76
2023/03/08 05:07:53;;;;;;;8.07;4.77;;;;;;;;;;5023108;28;20232;-76
2023/03/08 05:10:18;;;;;;;9.47;6.07;;;;;;;;;;5017105;28;20182;-76
2023/03/08 05:12:43;;;;;;;10.13;6.20;;;;;;;;;;5025008;28;20210;-76
2023/03/08 05:15:09;;;;;;;9.43;5.67;;;;;;;;;;5039575;28;20178;-76
2023/03/08 05:17:34;;;;;;;8.43;5.90;;;;;;;;;;5018618;28;20247;-76
2023/03/08 05:19:59;;;;;;;8.67;6.67;;;;;;;;;;5005354;28;20222;-76
2023/03/08 05:22:25;;;;;;;9.57;6.00;;;;;;;;;;5006252;28;20226;-76
2023/03/08 05:24:51;;;;;;;8.87;6.03;;;;;;;;;;5006432;28;20191;-76
2023/03/08 05:27:16;;;;;;;11.20;7.50;;;;;;;;;;5003384;28;20182;-76
2023/03/08 05:29:41;;;;;;;8.80;6.10;;;;;;;;;;5005314;28;20175;-76
2023/03/08 05:32:09;;;;;;;9.97;6.60;;;;;;;;;;5000924;28;20265;-76
2023/03/08 05:34:34;;;;;;;7.70;5.63;;;;;;;;;;5012578;28;20174;-76
2023/03/08 05:37:00;;;;;;;7.83;5.60;;;;;;;;;;4997005;28;20189;-76
2023/03/08 05:39:25;;;;;;;6.90;5.70;;;;;;;;;;4998635;28;20210;-76
2023/03/08 05:41:50;;;;;;;8.03;6.10;;;;;;;;;;5005252;28;20236;-76
2023/03/08 05:44:16;;;;;;;8.13;6.27;;;;;;;;;;5019186;28;20181;-76
2023/03/08 05:46:41;;;;;;;10.43;6.90;;;;;;;;;;5005966;28;20255;-76
2023/03/08 05:49:06;;;;;;;11.07;8.10;;;;;;;;;;5026199;28;20185;-76
2023/03/08 05:51:32;;;;;;;8.27;6.43;;;;;;;;;;5011101;28;20189;-76
2023/03/08 05:53:57;;;;;;;8.87;5.83;;;;;;;;;;5003530;28;20190;-76
2023/03/08 05:56:23;;;;;;;11.03;5.63;;;;;;;;;;4994549;28;20190;-76
2023/03/08 05:58:48;;;;;;;9.13;6.93;;;;;;;;;;5003869;28;20213;-76
2023/03/08 06:01:18;;;;;;;8.47;5.97;;;;;;;;;;5003566;28;20174;-76
2023/03/08 06:03:44;;;;;;;8.53;6.87;;;;;;;;;;5004369;28;20172;-81
2023/03/08 06:06:09;;;;;;;9.20;6.80;;;;;;;;;;5013746;28;20243;-79
2023/03/08 06:08:34;;;;;;;7.93;6.33;;;;;;;;;;5003048;28;20209;-79
2023/03/08 06:11:00;;;;;;;7.03;5.53;;;;;;;;;;5003441;28;20171;-79
2023/03/08 06:13:25;;;;;;;9.93;6.43;;;;;;;;;;5007122;28;20187;-79
2023/03/08 06:16:00;;;;;;;7.77;5.97;;;;;;;;;;5003601;28;20187;-79
2023/03/08 06:18:25;;;;;;;8.00;6.43;;;;;;;;;;5002675;28;20318;-79
2023/03/08 06:20:58;;;;;;;8.00;6.43;;;;;;;;;;4999297;28;20314;-79
2023/03/08 06:23:23;;;;;;;6.90;5.90;;;;;;;;;;5005687;28;20225;-79
2023/03/08 06:25:48;;;;;;;10.10;6.70;;;;;;;;;;5001519;28;20262;-79
2023/03/08 06:28:14;;;;;;;11.53;6.60;;;;;;;;;;5005646;28;20187;-79
2023/03/08 06:30:39;;;;;;;8.93;6.20;;;;;;;;;;4998250;28;20183;-79
2023/03/08 06:33:04;;;;;;;9.30;5.00;;;;;;;;;;5021779;28;20206;-79
2023/03/08 06:35:29;;;;;;;8.60;6.80;;;;;;;;;;4998494;28;20182;-79
2023/03/08 06:37:55;;;;;;;9.23;5.90;;;;;;;;;;5019097;28;20207;-79
2023/03/08 06:40:20;;;;;;;8.97;6.20;;;;;;;;;;5021814;28;20207;-79
2023/03/08 06:42:45;;;;;;;9.27;5.97;;;;;;;;;;5019273;28;20203;-79
2023/03/08 06:45:10;;;;;;;8.07;5.80;;;;;;;;;;5006338;28;20179;-79
2023/03/08 06:47:36;;;;;;;7.97;5.60;;;;;;;;;;4993773;28;20242;-79
2023/03/08 06:50:01;;;;;;;8.57;5.63;;;;;;;;;;5001315;28;20179;-79
2023/03/08 06:52:26;;;;;;;6.77;5.17;;;;;;;;;;5015834;28;20195;-79
2023/03/08 06:54:51;;;;;;;8.53;6.13;;;;;;;;;;4999479;28;20233;-79
2023/03/08 06:57:16;;;;;;;8.40;6.27;;;;;;;;;;5005829;28;20199;-79
2023/03/08 06:59:42;;;;;;;8.93;5.90;;;;;;;;;;5009160;28;20179;-79
2023/03/08 07:02:08;;;;;;;8.03;5.77;;;;;;;;;;5001444;28;20175;-79
2023/03/08 07:04:33;;;;;;;12.60;6.17;;;;;;;;;;5004570;28;20190;-79
2023/03/08 07:06:58;;;;;;;7.40;5.17;;;;;;;;;;5003347;28;20183;-79
2023/03/08 07:09:24;;;;;;;8.73;5.73;;;;;;;;;;5003714;28;20179;-79
2023/03/08 07:11:49;;;;;;;9.03;5.87;;;;;;;;;;5009658;28;20199;-79
2023/03/08 07:14:15;;;;;;;9.03;5.03;;;;;;;;;;5001110;28;20175;-79
2023/03/08 07:16:40;;;;;;;6.83;4.77;;;;;;;;;;5025564;28;20183;-79
2023/03/08 07:19:05;;;;;;;7.27;5.40;;;;;;;;;;5005405;28;20223;-79
2023/03/08 07:21:30;;;;;;;6.67;4.97;;;;;;;;;;5011896;28;20179;-79
2023/03/08 07:23:56;;;;;;;9.40;5.97;;;;;;;;;;5013401;28;20225;-79
2023/03/08 07:26:21;;;;;;;7.47;5.07;;;;;;;;;;5000174;28;20180;-81
2023/03/08 07:28:50;;;;;;;7.67;5.30;;;;;;;;;;5002007;28;20168;-80
2023/03/08 07:31:15;;;;;;;6.67;4.70;;;;;;;;;;5001013;28;20179;-80
2023/03/08 07:33:41;;;;;;;6.40;5.53;;;;;;;;;;5011490;28;20175;-80
2023/03/08 07:36:06;;;;;;;8.67;6.23;;;;;;;;;;5004025;28;20180;-80
2023/03/08 07:38:31;;;;;;;6.73;5.07;;;;;;;;;;5022652;28;20211;-80
2023/03/08 07:40:57;;;;;;;9.93;5.50;;;;;;;;;;5027316;28;20214;-80
2023/03/08 07:43:22;;;;;;;6.73;5.30;;;;;;;;;;5010350;28;20190;-80
2023/03/08 07:45:47;;;;;;;9.07;6.17;;;;;;;;;;5015516;28;20266;-80
2023/03/08 07:48:13;;;;;;;11.43;8.53;;;;;;;;;;5015087;28;20181;-79
2023/03/08 07:50:38;;;;;;;7.73;5.73;;;;;;;;;;4998824;28;20171;-80
2023/03/08 07:53:03;;;;;;;8.10;5.67;;;;;;;;;;5003834;28;20182;-80
2023/03/08 07:55:29;;;;;;;10.67;6.90;;;;;;;;;;5004250;28;20187;-80
2023/03/08 07:57:54;;;;;;;10.83;7.37;;;;;;;;;;5008170;28;20202;-79
2023/03/08 08:00:20;;;;;;;17.93;9.97;;;;;;;;;;4999902;28;20229;-80
2023/03/08 08:02:46;;;;;;;13.27;9.03;;;;;;;;;;5000439;28;20171;-80
2023/03/08 08:05:12;;;;;;;15.10;10.80;;;;;;;;;;4998780;28;20171;-80
2023/03/08 08:07:37;;;;;;;22.80;12.83;;;;;;;;;;5001858;28;20210;-80
2023/03/08 08:10:02;;;;;;;19.27;12.07;;;;;;;;;;5003367;28;20222;-80
2023/03/08 08:12:28;;;;;;;11.23;8.50;;;;;;;;;;4999203;28;20194;-80
2023/03/08 08:14:53;;;;;;;12.67;8.30;;;;;;;;;;5029420;28;20171;-80
2023/03/08 08:17:19;;;;;;;11.70;8.20;;;;;;;;;;5006135;28;20274;-80
2023/03/08 08:19:44;;;;;;;11.63;8.60;;;;;;;;;;5027780;28;20285;-80
2023/03/08 08:22:09;;;;;;;12.97;9.57;;;;;;;;;;5017530;28;20206;-80
2023/03/08 08:24:35;;;;;;;12.83;8.53;;;;;;;;;;5039731;28;20177;-80
2023/03/08 08:27:00;;;;;;;13.17;9.37;;;;;;;;;;5056427;28;20249;-80
2023/03/08 08:29:25;;;;;;;15.00;9.03;;;;;;;;;;5028581;28;20178;-80
2023/03/08 08:31:51;;;;;;;12.90;9.60;;;;;;;;;;5047675;28;20174;-79
2023/03/08 08:34:17;;;;;;;16.83;8.17;;;;;;;;;;5021187;28;20170;-79
2023/03/08 08:36:43;;;;;;;13.33;9.07;;;;;;;;;;5017363;28;20175;-79
2023/03/08 08:39:08;;;;;;;12.17;7.53;;;;;;;;;;5036314;28;20210;-79
2023/03/08 08:41:36;;;;;;;13.57;8.83;;;;;;;;;;5028943;28;20175;-79
2023/03/08 08:44:02;;;;;;;12.87;8.73;;;;;;;;;;5019490;28;20167;-79
2023/03/08 08:46:27;;;;;;;13.73;8.37;;;;;;;;;;5023273;28;20193;-79
2023/03/08 08:48:53;;;;;;;12.67;9.47;;;;;;;;;;5021604;28;20186;-79
2023/03/08 08:51:19;;;;;;;14.97;9.37;;;;;;;;;;5020220;28;20190;-79
2023/03/08 08:53:44;;;;;;;12.67;8.23;;;;;;;;;;5033150;28;20163;-79
2023/03/08 08:56:20;;;;;;;12.47;8.63;;;;;;;;;;5026000;28;20178;-79
2023/03/08 08:58:47;;;;;;;15.00;9.30;;;;;;;;;;5026555;28;20189;-79
2023/03/08 09:01:31;;;;;;;15.20;9.43;;;;;;;;;;5025572;28;20232;-79
2023/03/08 09:03:56;;;;;;;12.77;8.87;;;;;;;;;;5031973;28;20174;-79
2023/03/08 09:06:22;;;;;;;11.90;8.17;;;;;;;;;;5022150;28;20228;-79
2023/03/08 09:08:49;;;;;;;14.23;9.80;;;;;;;;;;5027495;28;20178;-79
2023/03/08 09:11:14;;;;;;;15.73;9.90;;;;;;;;;;5022562;28;20297;-79
2023/03/08 09:13:41;;;;;;;11.10;8.47;;;;;;;;;;5020006;28;20270;-79
2023/03/08 09:16:15;;;;;;;13.63;9.17;;;;;;;;;;5030022;28;20225;-79
2023/03/08 09:18:40;;;;;;;11.30;8.97;;;;;;;;;;5017580;28;20218;-79
2023/03/08 09:21:06;;;;;;;13.97;8.70;;;;;;;;;;5022726;28;20179;-79
2023/03/08 09:23:31;;;;;;;13.43;9.20;;;;;;;;;;5010374;28;20184;-79
2023/03/08 09:25:57;;;;;;;11.30;8.27;;;;;;;;;;5002387;28;20228;-80
2023/03/08 09:28:22;;;;;;;12.13;8.60;;;;;;;;;;5000470;28;20273;-80
2023/03/08 09:30:47;;;;;;;10.97;7.57;;;;;;;;;;4995076;28;20187;-79
2023/03/08 09:33:12;;;;;;;9.27;6.23;;;;;;;;;;4995942;28;20191;-80
2023/03/08 09:35:38;;;;;;;11.47;7.07;;;;;;;;;;4999907;28;20193;-80
2023/03/08 09:38:03;;;;;;;9.03;6.13;;;;;;;;;;4997802;28;20203;-80
2023/03/08 09:40:33;;;;;;;12.67;7.97;;;;;;;;;;5002716;28;20183;-80
2023/03/08 09:43:02;;;;;;;11.87;6.60;;;;;;;;;;5008962;28;20269;-80
2023/03/08 09:45:28;;;;;;;12.87;7.63;;;;;;;;;;5001398;28;20167;-77
2023/03/08 09:48:05;;;;;;;10.90;6.33;;;;;;;;;;5013961;28;20167;-78
2023/03/08 09:50:45;;;;;;;9.00;6.07;;;;;;;;;;5011289;28;20170;-78
2023/03/08 09:53:15;;;;;;;8.57;6.60;;;;;;;;;;5009658;28;20175;-78
2023/03/08 09:55:43;;;;;;;11.63;7.83;;;;;;;;;;5002036;28;20174;-78
2023/03/08 09:58:15;;;;;;;7.77;6.20;;;;;;;;;;5005492;28;20272;-78
2023/03/08 10:00:40;;;;;;;9.43;6.13;;;;;;;;;;5025162;28;20254;-78
2023/03/08 10:03:24;;;;;;;7.27;5.80;;;;;;;;;;5004700;28;20180;-78
2023/03/08 10:05:58;;;;;;;10.07;7.13;;;;;;;;;;5020508;28;20185;-78
2023/03/08 10:08:25;;;;;;;6.07;4.10;;;;;;;;;;5018427;28;20183;-79
2023/03/08 10:10:50;;;;;;;6.47;4.03;;;;;;;;;;5002544;28;20194;-79
2023/03/08 10:13:34;;;;;;;5.80;4.03;;;;;;;;;;5020988;28;20195;-79
2023/03/08 10:16:17;;;;;;;5.80;4.47;;;;;;;;;;5005302;28;20180;-78
2023/03/08 10:18:45;;;;;;;4.50;4.10;;;;;;;;;;5022660;28;20230;-78
2023/03/08 10:21:16;;;;;;;4.57;4.17;;;;;;;;;;5024103;28;20195;-78
2023/03/08 10:23:43;;;;;;;5.37;4.23;;;;;;;;;;5028428;28;20178;-78
2023/03/08 10:26:12;;;;;;;5.87;3.93;;;;;;;;;;5025537;28;20198;-78
2023/03/08 10:28:37;;;;;;;8.03;5.33;;;;;;;;;;5032313;28;20186;-80
2023/03/08 10:31:13;;;;;;;6.53;4.90;;;;;;;;;;5024502;28;20187;-78
2023/03/08 10:33:38;;;;;;;5.73;4.03;;;;;;;;;;5026157;28;20267;-79
2023/03/08 10:36:08;;;;;;;3.57;3.27;;;;;;;;;;5031072;28;20217;-79
2023/03/08 10:38:35;;;;;;;3.70;3.40;;;;;;;;;;5020910;28;20238;-79
2023/03/08 10:41:14;;;;;;;4.00;2.67;;;;;;;;;;5025378;28;20193;-79
2023/03/08 10:43:44;;;;;;;4.70;4.20;;;;;;;;;;5044652;28;20188;-79
2023/03/08 10:46:14;;;;;;;2.90;2.47;;;;;;;;;;5031877;28;20180;-79
2023/03/08 10:48:40;;;;;;;3.70;2.90;;;;;;;;;;5026768;28;20179;-79
2023/03/08 10:51:14;;;;;;;4.13;3.40;;;;;;;;;;5032800;28;20190;-79
2023/03/08 10:53:39;;;;;;;3.20;2.40;;;;;;;;;;5039929;28;20269;-79
2023/03/08 10:56:22;;;;;;;2.40;2.20;;;;;;;;;;5029338;28;20227;-79
2023/03/08 10:58:47;;;;;;;2.43;2.23;;;;;;;;;;5040885;28;20205;-79
2023/03/08 11:01:33;;;;;;;3.17;2.87;;;;;;;;;;5043783;28;20179;-79
2023/03/08 11:04:03;;;;;;;4.40;2.80;;;;;;;;;;5026077;28;20182;-79
2023/03/08 11:06:28;;;;;;;4.40;2.97;;;;;;;;;;5031651;28;20187;-79
2023/03/08 11:08:56;;;;;;;2.53;2.33;;;;;;;;;;5023054;28;20181;-79
2023/03/08 11:11:21;;;;;;;2.30;2.10;;;;;;;;;;5024513;28;20213;-79
2023/03/08 11:13:47;;;;;;;2.10;1.90;;;;;;;;;;5030700;28;20185;-79
2023/03/08 11:16:15;;;;;;;2.47;1.90;;;;;;;;;;5025632;28;20272;-79
2023/03/08 11:19:07;;;;;;;2.53;2.20;;;;;;;;;;5021420;28;20226;-80
2023/03/08 11:21:55;;;;;;;2.40;2.20;;;;;;;;;;4990371;28;20282;-79
2023/03/08 11:24:20;;;;;;;2.30;2.07;;;;;;;;;;5010197;28;20201;-79
2023/03/08 11:26:46;;;;;;;2.20;2.00;;;;;;;;;;5008071;28;20206;-79
2023/03/08 11:29:20;;;;;;;2.60;2.40;;;;;;;;;;5011203;28;20215;-79
2023/03/08 11:31:45;;;;;;;1.93;1.80;;;;;;;;;;5009185;28;20268;-80
2023/03/08 11:34:13;;;;;;;4.97;3.70;;;;;;;;;;5003601;28;20277;-80
2023/03/08 11:36:42;;;;;;;3.60;2.70;;;;;;;;;;5009289;28;20174;-79
2023/03/08 11:39:24;;;;;;;8.43;6.70;;;;;;;;;;5002831;28;20224;-80
2023/03/08 11:42:06;;;;;;;5.30;3.23;;;;;;;;;;5027179;28;20290;-79
2023/03/08 11:44:49;;;;;;;8.40;5.73;;;;;;;;;;5002958;28;20182;-80
2023/03/08 11:47:17;;;;;;;8.90;6.50;;;;;;;;;;5014886;28;20186;-80
2023/03/08 11:50:04;;;;;;;4.30;2.97;;;;;;;;;;5010510;28;20256;-79
2023/03/08 11:52:45;;;;;;;10.53;7.17;;;;;;;;;;5011666;28;20205;-80
2023/03/08 11:55:19;;;;;;;9.20;6.77;;;;;;;;;;5012503;28;20339;-80
2023/03/08 11:57:48;;;;;;;3.47;3.07;;;;;;;;;;5002855;28;20212;-79
2023/03/08 12:00:32;;;;;;;2.40;2.20;;;;;;;;;;4998513;28;20222;-80
2023/03/08 12:03:00;;;;;;;4.43;3.50;;;;;;;;;;5008393;28;20178;-80
2023/03/08 12:05:33;;;;;;;2.73;2.53;;;;;;;;;;5004952;28;20279;-80
2023/03/08 12:08:04;;;;;;;2.37;1.87;;;;;;;;;;5021903;28;20207;-80
2023/03/08 12:10:36;;;;;;;2.70;2.33;;;;;;;;;;5007958;28;20190;-80
2023/03/08 12:13:11;;;;;;;3.87;2.47;;;;;;;;;;4996237;28;20262;-80
2023/03/08 12:15:36;;;;;;;2.27;2.07;;;;;;;;;;5008919;28;20191;-80
2023/03/08 12:18:17;;;;;;;2.60;2.40;;;;;;;;;;5005378;28;20210;-80
2023/03/08 12:20:42;;;;;;;2.27;2.00;;;;;;;;;;5018321;28;20191;-80
2023/03/08 12:23:14;;;;;;;2.43;2.23;;;;;;;;;;5015894;28;20194;-80
2023/03/08 12:25:40;;;;;;;2.77;2.40;;;;;;;;;;5022778;28;20206;-80
2023/03/08 12:28:05;;;;;;;2.30;2.10;;;;;;;;;;5045602;28;20216;-80
2023/03/08 12:30:31;;;;;;;2.23;2.03;;;;;;;;;;5026816;28;20229;-80
2023/03/08 12:32:57;;;;;;;2.27;2.07;;;;;;;;;;5021945;28;20187;-80
2023/03/08 12:35:49;;;;;;;3.03;2.00;;;;;;;;;;5033005;28;20174;-80
2023/03/08 12:38:14;;;;;;;2.03;1.93;;;;;;;;;;5024927;28;20225;-80
2023/03/08 12:40:43;;;;;;;2.23;1.90;;;;;;;;;;5034646;28;20171;-80
2023/03/08 12:43:10;;;;;;;2.20;2.00;;;;;;;;;;5030624;28;20181;-81
2023/03/08 12:45:35;;;;;;;2.27;2.07;;;;;;;;;;5022257;28;20175;-80
2023/03/08 12:48:03;;;;;;;1.90;1.80;;;;;;;;;;5036488;28;20182;-80
2023/03/08 12:50:29;;;;;;;2.20;2.00;;;;;;;;;;5016917;28;20210;-80
2023/03/08 12:52:55;;;;;;;2.90;2.00;;;;;;;;;;5020589;28;20280;-80
2023/03/08 12:55:30;;;;;;;2.57;2.20;;;;;;;;;;5015641;28;20174;-80
2023/03/08 12:57:56;;;;;;;3.10;2.00;;;;;;;;;;5014973;28;20202;-80
2023/03/08 13:00:27;;;;;;;1.80;1.70;;;;;;;;;;5024549;28;20197;-80
2023/03/08 13:02:59;;;;;;;1.80;1.70;;;;;;;;;;5023268;28;20211;-80
2023/03/08 13:05:27;;;;;;;2.10;1.77;;;;;;;;;;5030836;28;20201;-80
2023/03/08 13:07:55;;;;;;;2.07;1.87;;;;;;;;;;5023256;28;20180;-80
2023/03/08 13:10:32;;;;;;;2.73;2.00;;;;;;;;;;5042050;28;20177;-79
2023/03/08 13:13:09;;;;;;;1.80;1.70;;;;;;;;;;5027937;28;20198;-80
2023/03/08 13:15:35;;;;;;;1.80;1.70;;;;;;;;;;5025624;28;20250;-80
2023/03/08 13:18:08;;;;;;;2.33;2.13;;;;;;;;;;5030965;28;20205;-80
2023/03/08 13:20:34;;;;;;;1.70;1.60;;;;;;;;;;5031889;28;20248;-80
2023/03/08 13:23:14;;;;;;;2.13;1.93;;;;;;;;;;5022070;28;20186;-80
2023/03/08 13:25:39;;;;;;;2.57;2.00;;;;;;;;;;5023674;28;20178;-80
2023/03/08 13:28:09;;;;;;;2.13;1.93;;;;;;;;;;5017611;28;20216;-80
2023/03/08 13:30:45;;;;;;;2.30;2.10;;;;;;;;;;5017498;28;20186;-80
2023/03/08 13:33:22;;;;;;;2.20;1.90;;;;;;;;;;5022800;28;20246;-80
2023/03/08 13:36:13;;;;;;;1.60;1.50;;;;;;;;;;5020100;28;20182;-80
2023/03/08 13:38:39;;;;;;;2.20;2.00;;;;;;;;;;5027241;28;20198;-80
2023/03/08 13:41:04;;;;;;;2.10;1.90;;;;;;;;;;5026946;28;20180;-80
2023/03/08 13:43:30;;;;;;;3.23;2.07;;;;;;;;;;5019821;28;20262;-80
2023/03/08 13:46:00;;;;;;;3.07;1.90;;;;;;;;;;5026711;28;20180;-80
2023/03/08 13:48:28;;;;;;;1.97;1.87;;;;;;;;;;5028049;28;20201;-80
2023/03/08 13:50:54;;;;;;;1.90;1.80;;;;;;;;;;5022331;28;20189;-79
2023/03/08 13:53:24;;;;;;;2.00;1.90;;;;;;;;;;5018118;28;20187;-79
2023/03/08 13:55:51;;;;;;;3.00;2.07;;;;;;;;;;5027846;28;20249;-79
2023/03/08 13:58:27;;;;;;;2.17;1.97;;;;;;;;;;5020427;28;20207;-79
2023/03/08 14:00:57;;;;;;;2.77;2.00;;;;;;;;;;5024648;28;20175;-79
2023/03/08 14:03:22;;;;;;;1.90;1.70;;;;;;;;;;5027180;28;20171;-79
2023/03/08 14:05:47;;;;;;;1.80;1.70;;;;;;;;;;5038457;28;20259;-79
2023/03/08 14:08:20;;;;;;;1.93;1.67;;;;;;;;;;5028981;28;20179;-79
2023/03/08 14:10:47;;;;;;;1.70;1.60;;;;;;;;;;5030093;28;20261;-79
2023/03/08 14:13:33;;;;;;;1.70;1.60;;;;;;;;;;5025622;28;20202;-79
2023/03/08 14:15:59;;;;;;;3.30;1.60;;;;;;;;;;5024730;28;20199;-79
2023/03/08 14:18:30;;;;;;;1.60;1.50;;;;;;;;;;5022859;28;20325;-79
2023/03/08 14:21:19;;;;;;;1.63;1.53;;;;;;;;;;5011290;28;20245;-79
2023/03/08 14:23:45;;;;;;;1.60;1.50;;;;;;;;;;5011304;28;20193;-79
2023/03/08 14:26:29;;;;;;;1.60;1.50;;;;;;;;;;5009330;28;20180;-79
2023/03/08 14:29:09;;;;;;;1.60;1.50;;;;;;;;;;5005322;28;20240;-79
2023/03/08 14:31:37;;;;;;;1.50;1.40;;;;;;;;;;5005601;28;20218;-79
2023/03/08 14:34:03;;;;;;;1.63;1.53;;;;;;;;;;5021867;28;20192;-78
2023/03/08 14:36:29;;;;;;;1.60;1.47;;;;;;;;;;5004748;28;20186;-78
2023/03/08 14:38:55;;;;;;;1.77;1.67;;;;;;;;;;5003329;28;20214;-78
2023/03/08 14:41:34;;;;;;;1.90;1.80;;;;;;;;;;5014707;28;20175;-78